sensor_id;sensor_type;location;lat;lon;timestamp;temperature;humidity
22925;DHT22;11628;51.072;3.712;2022-11-23T00:00:23;9.20;99.90
22925;DHT22;11628;51.072;3.712;2022-11-23T00:02:55;9.20;99.90
22925;DHT22;11628;51.072;3.712;2022-11-23T00:05:22;9.20;99.90
22925;DHT22;11628;51.072;3.712;2022-11-23T00:07:47;9.30;99.90
22925;DHT22;11628;51.072;3.712;2022-11-23T00:10:13;9.20;99.90
22925;DHT22;11628;51.072;3.712;2022-11-23T00:12:39;9.20;99.90
22925;DHT22;11628;51.072;3.712;2022-11-23T00:15:06;9.20;99.90
22925;DHT22;11628;51.072;3.712;2022-11-23T00:17:32;9.20;99.90
22925;DHT22;11628;51.072;3.712;2022-11-23T00:19:58;9.20;99.90
22925;DHT22;11628;51.072;3.712;2022-11-23T00:22:24;9.20;99.90
22925;DHT22;11628;51.072;3.712;2022-11-23T00:24:50;9.20;99.90
22925;DHT22;11628;51.072;3.712;2022-11-23T00:27:16;9.30;99.90
22925;DHT22;11628;51.072;3.712;2022-11-23T00:29:42;9.20;99.90
22925;DHT22;11628;51.072;3.712;2022-11-23T00:32:07;9.30;99.90
22925;DHT22;11628;51.072;3.712;2022-11-23T00:34:33;9.30;99.90
22925;DHT22;11628;51.072;3.712;2022-11-23T00:36:59;9.30;99.90
22925;DHT22;11628;51.072;3.712;2022-11-23T00:39:24;9.30;99.90
22925;DHT22;11628;51.072;3.712;2022-11-23T00:41:50;9.20;99.90
22925;DHT22;11628;51.072;3.712;2022-11-23T00:44:16;9.30;99.90
22925;DHT22;11628;51.072;3.712;2022-11-23T00:46:41;9.20;99.90
22925;DHT22;11628;51.072;3.712;2022-11-23T00:49:07;9.20;99.90
22925;DHT22;11628;51.072;3.712;2022-11-23T00:51:35;9.20;99.90
22925;DHT22;11628;51.072;3.712;2022-11-23T00:54:02;9.20;99.90
22925;DHT22;11628;51.072;3.712;2022-11-23T00:56:30;9.20;99.90
22925;DHT22;11628;51.072;3.712;2022-11-23T00:58:57;9.20;99.90
22925;DHT22;11628;51.072;3.712;2022-11-23T01:01:28;9.30;99.90
22925;DHT22;11628;51.072;3.712;2022-11-23T01:03:57;9.20;99.90
22925;DHT22;11628;51.072;3.712;2022-11-23T01:06:26;9.20;99.90
22925;DHT22;11628;51.072;3.712;2022-11-23T01:08:54;9.20;99.90
22925;DHT22;11628;51.072;3.712;2022-11-23T01:11:21;9.20;99.90
22925;DHT22;11628;51.072;3.712;2022-11-23T01:13:48;9.20;99.90
22925;DHT22;11628;51.072;3.712;2022-11-23T01:16:16;9.20;99.90
22925;DHT22;11628;51.072;3.712;2022-11-23T01:18:42;9.20;99.90
22925;DHT22;11628;51.072;3.712;2022-11-23T01:21:08;9.20;99.90
22925;DHT22;11628;51.072;3.712;2022-11-23T01:23:34;9.20;99.90
22925;DHT22;11628;51.072;3.712;2022-11-23T01:26:08;9.20;99.90
22925;DHT22;11628;51.072;3.712;2022-11-23T01:28:34;9.30;99.90
22925;DHT22;11628;51.072;3.712;2022-11-23T01:31:11;9.20;99.90
22925;DHT22;11628;51.072;3.712;2022-11-23T01:33:38;9.20;99.90
22925;DHT22;11628;51.072;3.712;2022-11-23T01:36:18;9.20;99.90
22925;DHT22;11628;51.072;3.712;2022-11-23T01:38:46;9.30;99.90
22925;DHT22;11628;51.072;3.712;2022-11-23T01:41:15;9.30;99.90
22925;DHT22;11628;51.072;3.712;2022-11-23T01:43:42;9.30;99.90
22925;DHT22;11628;51.072;3.712;2022-11-23T01:46:08;9.30;99.90
22925;DHT22;11628;51.072;3.712;2022-11-23T01:48:45;9.20;99.90
22925;DHT22;11628;51.072;3.712;2022-11-23T01:51:14;9.20;99.90
22925;DHT22;11628;51.072;3.712;2022-11-23T01:53:41;9.30;99.90
22925;DHT22;11628;51.072;3.712;2022-11-23T01:56:12;9.20;99.90
22925;DHT22;11628;51.072;3.712;2022-11-23T01:58:42;9.30;99.90
22925;DHT22;11628;51.072;3.712;2022-11-23T02:01:10;9.10;99.90
22925;DHT22;11628;51.072;3.712;2022-11-23T02:03:36;9.10;99.90
22925;DHT22;11628;51.072;3.712;2022-11-23T02:06:06;9.20;99.90
22925;DHT22;11628;51.072;3.712;2022-11-23T02:08:34;9.20;99.90
22925;DHT22;11628;51.072;3.712;2022-11-23T02:11:01;9.10;99.90
22925;DHT22;11628;51.072;3.712;2022-11-23T02:13:28;9.10;99.90
22925;DHT22;11628;51.072;3.712;2022-11-23T02:15:55;9.10;99.90
22925;DHT22;11628;51.072;3.712;2022-11-23T02:18:27;9.10;99.90
22925;DHT22;11628;51.072;3.712;2022-11-23T02:20:54;9.10;99.90
22925;DHT22;11628;51.072;3.712;2022-11-23T02:23:28;9.00;99.90
22925;DHT22;11628;51.072;3.712;2022-11-23T02:26:05;9.00;99.90
22925;DHT22;11628;51.072;3.712;2022-11-23T02:31:32;9.00;99.90
22925;DHT22;11628;51.072;3.712;2022-11-23T02:33:58;9.00;99.90
22925;DHT22;11628;51.072;3.712;2022-11-23T02:36:39;9.00;99.90
22925;DHT22;11628;51.072;3.712;2022-11-23T02:39:17;8.90;99.90
22925;DHT22;11628;51.072;3.712;2022-11-23T02:41:50;8.90;99.90
22925;DHT22;11628;51.072;3.712;2022-11-23T02:47:05;8.90;99.90
22925;DHT22;11628;51.072;3.712;2022-11-23T02:49:32;8.90;99.90
22925;DHT22;11628;51.072;3.712;2022-11-23T02:51:58;8.90;99.90
22925;DHT22;11628;51.072;3.712;2022-11-23T02:54:24;8.90;99.90
22925;DHT22;11628;51.072;3.712;2022-11-23T02:56:49;8.90;99.90
22925;DHT22;11628;51.072;3.712;2022-11-23T02:59:15;8.90;99.90
22925;DHT22;11628;51.072;3.712;2022-11-23T03:01:40;8.90;99.90
22925;DHT22;11628;51.072;3.712;2022-11-23T03:04:07;8.80;99.90
22925;DHT22;11628;51.072;3.712;2022-11-23T03:06:33;8.80;99.90
22925;DHT22;11628;51.072;3.712;2022-11-23T03:08:58;8.80;99.90
22925;DHT22;11628;51.072;3.712;2022-11-23T03:11:24;8.80;99.90
22925;DHT22;11628;51.072;3.712;2022-11-23T03:13:50;8.80;99.90
22925;DHT22;11628;51.072;3.712;2022-11-23T03:16:15;8.80;99.90
22925;DHT22;11628;51.072;3.712;2022-11-23T03:18:41;8.80;99.90
22925;DHT22;11628;51.072;3.712;2022-11-23T03:21:07;8.80;99.90
22925;DHT22;11628;51.072;3.712;2022-11-23T03:23:34;8.70;99.90
22925;DHT22;11628;51.072;3.712;2022-11-23T03:26:00;8.70;99.90
22925;DHT22;11628;51.072;3.712;2022-11-23T03:28:26;8.70;99.90
22925;DHT22;11628;51.072;3.712;2022-11-23T03:30:52;8.70;99.90
22925;DHT22;11628;51.072;3.712;2022-11-23T03:33:17;8.60;99.90
22925;DHT22;11628;51.072;3.712;2022-11-23T03:35:43;8.60;99.90
22925;DHT22;11628;51.072;3.712;2022-11-23T03:38:09;8.70;99.90
22925;DHT22;11628;51.072;3.712;2022-11-23T03:40:35;8.70;99.90
22925;DHT22;11628;51.072;3.712;2022-11-23T03:43:01;8.70;99.90
22925;DHT22;11628;51.072;3.712;2022-11-23T03:45:27;8.60;99.90
22925;DHT22;11628;51.072;3.712;2022-11-23T03:47:53;8.60;99.90
22925;DHT22;11628;51.072;3.712;2022-11-23T03:50:18;8.60;99.90
22925;DHT22;11628;51.072;3.712;2022-11-23T03:52:44;8.60;99.90
22925;DHT22;11628;51.072;3.712;2022-11-23T03:55:12;8.60;99.90
22925;DHT22;11628;51.072;3.712;2022-11-23T03:57:38;8.60;99.90
22925;DHT22;11628;51.072;3.712;2022-11-23T04:00:04;8.60;99.90
22925;DHT22;11628;51.072;3.712;2022-11-23T04:02:30;8.60;99.90
22925;DHT22;11628;51.072;3.712;2022-11-23T04:04:56;8.40;99.90
22925;DHT22;11628;51.072;3.712;2022-11-23T04:07:21;8.40;99.90
22925;DHT22;11628;51.072;3.712;2022-11-23T04:09:47;8.30;99.90
22925;DHT22;11628;51.072;3.712;2022-11-23T04:12:12;8.20;99.90
22925;DHT22;11628;51.072;3.712;2022-11-23T04:14:38;8.10;99.90
22925;DHT22;11628;51.072;3.712;2022-11-23T04:17:04;8.10;99.90
22925;DHT22;11628;51.072;3.712;2022-11-23T04:19:30;8.20;99.90
22925;DHT22;11628;51.072;3.712;2022-11-23T04:21:56;8.20;99.90
22925;DHT22;11628;51.072;3.712;2022-11-23T04:24:22;8.20;99.90
22925;DHT22;11628;51.072;3.712;2022-11-23T04:26:48;8.20;99.90
22925;DHT22;11628;51.072;3.712;2022-11-23T04:29:14;8.20;99.90
22925;DHT22;11628;51.072;3.712;2022-11-23T04:31:39;8.20;99.90
22925;DHT22;11628;51.072;3.712;2022-11-23T04:34:05;8.30;99.90
22925;DHT22;11628;51.072;3.712;2022-11-23T04:36:30;8.30;99.90
22925;DHT22;11628;51.072;3.712;2022-11-23T04:38:56;8.30;99.90
22925;DHT22;11628;51.072;3.712;2022-11-23T04:41:22;8.30;99.90
22925;DHT22;11628;51.072;3.712;2022-11-23T04:43:49;8.30;99.90
22925;DHT22;11628;51.072;3.712;2022-11-23T04:46:16;8.30;99.90
22925;DHT22;11628;51.072;3.712;2022-11-23T04:48:42;8.40;99.90
22925;DHT22;11628;51.072;3.712;2022-11-23T04:51:07;8.40;99.90
22925;DHT22;11628;51.072;3.712;2022-11-23T04:53:33;8.40;99.90
22925;DHT22;11628;51.072;3.712;2022-11-23T04:55:59;8.50;99.90
22925;DHT22;11628;51.072;3.712;2022-11-23T04:58:25;8.50;99.90
22925;DHT22;11628;51.072;3.712;2022-11-23T05:00:50;8.60;99.90
22925;DHT22;11628;51.072;3.712;2022-11-23T05:03:16;8.50;99.90
22925;DHT22;11628;51.072;3.712;2022-11-23T05:05:42;8.50;99.90
22925;DHT22;11628;51.072;3.712;2022-11-23T05:08:09;8.40;99.90
22925;DHT22;11628;51.072;3.712;2022-11-23T05:10:36;8.50;99.90
22925;DHT22;11628;51.072;3.712;2022-11-23T05:13:02;8.50;99.90
22925;DHT22;11628;51.072;3.712;2022-11-23T05:15:28;8.40;99.90
22925;DHT22;11628;51.072;3.712;2022-11-23T05:18:00;8.40;99.90
22925;DHT22;11628;51.072;3.712;2022-11-23T05:20:25;8.40;99.90
22925;DHT22;11628;51.072;3.712;2022-11-23T05:22:51;8.40;99.90
22925;DHT22;11628;51.072;3.712;2022-11-23T05:25:17;8.40;99.90
22925;DHT22;11628;51.072;3.712;2022-11-23T05:27:42;8.40;99.90
22925;DHT22;11628;51.072;3.712;2022-11-23T05:30:08;8.40;99.90
22925;DHT22;11628;51.072;3.712;2022-11-23T05:32:34;8.40;99.90
22925;DHT22;11628;51.072;3.712;2022-11-23T05:35:00;8.40;99.90
22925;DHT22;11628;51.072;3.712;2022-11-23T05:37:26;8.40;99.90
22925;DHT22;11628;51.072;3.712;2022-11-23T05:39:51;8.50;99.90
22925;DHT22;11628;51.072;3.712;2022-11-23T05:42:17;8.40;99.90
22925;DHT22;11628;51.072;3.712;2022-11-23T05:44:43;8.50;99.90
22925;DHT22;11628;51.072;3.712;2022-11-23T05:47:09;8.50;99.90
22925;DHT22;11628;51.072;3.712;2022-11-23T05:49:34;8.50;99.90
22925;DHT22;11628;51.072;3.712;2022-11-23T05:52:00;8.50;99.90
22925;DHT22;11628;51.072;3.712;2022-11-23T05:54:26;8.30;99.90
22925;DHT22;11628;51.072;3.712;2022-11-23T05:56:51;8.20;99.90
22925;DHT22;11628;51.072;3.712;2022-11-23T05:59:17;8.20;99.90
22925;DHT22;11628;51.072;3.712;2022-11-23T06:01:43;8.10;99.90
22925;DHT22;11628;51.072;3.712;2022-11-23T06:04:08;8.10;99.90
22925;DHT22;11628;51.072;3.712;2022-11-23T06:06:34;8.00;99.90
22925;DHT22;11628;51.072;3.712;2022-11-23T06:09:00;8.00;99.90
22925;DHT22;11628;51.072;3.712;2022-11-23T06:11:25;7.90;99.90
22925;DHT22;11628;51.072;3.712;2022-11-23T06:13:51;7.90;99.90
22925;DHT22;11628;51.072;3.712;2022-11-23T06:16:17;7.80;99.90
22925;DHT22;11628;51.072;3.712;2022-11-23T06:18:44;7.80;99.90
22925;DHT22;11628;51.072;3.712;2022-11-23T06:21:10;7.80;99.90
22925;DHT22;11628;51.072;3.712;2022-11-23T06:23:35;7.70;99.90
22925;DHT22;11628;51.072;3.712;2022-11-23T06:26:01;7.80;99.90
22925;DHT22;11628;51.072;3.712;2022-11-23T06:28:27;7.70;99.90
22925;DHT22;11628;51.072;3.712;2022-11-23T06:30:54;7.70;99.90
22925;DHT22;11628;51.072;3.712;2022-11-23T06:33:20;7.60;99.90
22925;DHT22;11628;51.072;3.712;2022-11-23T06:35:59;7.60;99.90
22925;DHT22;11628;51.072;3.712;2022-11-23T06:38:25;7.50;99.90
22925;DHT22;11628;51.072;3.712;2022-11-23T06:40:51;7.50;99.90
22925;DHT22;11628;51.072;3.712;2022-11-23T06:43:17;7.50;99.90
22925;DHT22;11628;51.072;3.712;2022-11-23T06:45:43;7.40;99.90
22925;DHT22;11628;51.072;3.712;2022-11-23T06:48:09;7.40;99.90
22925;DHT22;11628;51.072;3.712;2022-11-23T06:50:34;7.40;99.90
22925;DHT22;11628;51.072;3.712;2022-11-23T06:53:00;7.40;99.90
22925;DHT22;11628;51.072;3.712;2022-11-23T06:55:26;7.30;99.90
22925;DHT22;11628;51.072;3.712;2022-11-23T06:57:52;7.30;99.90
22925;DHT22;11628;51.072;3.712;2022-11-23T07:00:18;7.30;99.90
22925;DHT22;11628;51.072;3.712;2022-11-23T07:02:50;7.30;99.90
22925;DHT22;11628;51.072;3.712;2022-11-23T07:05:17;7.30;99.90
22925;DHT22;11628;51.072;3.712;2022-11-23T07:07:43;7.30;99.90
22925;DHT22;11628;51.072;3.712;2022-11-23T07:10:09;7.30;99.90
22925;DHT22;11628;51.072;3.712;2022-11-23T07:12:36;7.30;99.90
22925;DHT22;11628;51.072;3.712;2022-11-23T07:15:02;7.20;99.90
22925;DHT22;11628;51.072;3.712;2022-11-23T07:17:28;7.20;99.90
22925;DHT22;11628;51.072;3.712;2022-11-23T07:19:53;7.20;99.90
22925;DHT22;11628;51.072;3.712;2022-11-23T07:22:19;7.20;99.90
22925;DHT22;11628;51.072;3.712;2022-11-23T07:24:45;7.20;99.90
22925;DHT22;11628;51.072;3.712;2022-11-23T07:27:10;7.10;99.90
22925;DHT22;11628;51.072;3.712;2022-11-23T07:29:36;7.10;99.90
22925;DHT22;11628;51.072;3.712;2022-11-23T07:32:02;7.10;99.90
22925;DHT22;11628;51.072;3.712;2022-11-23T07:34:28;7.10;99.90
22925;DHT22;11628;51.072;3.712;2022-11-23T07:36:53;7.10;99.90
22925;DHT22;11628;51.072;3.712;2022-11-23T07:39:19;7.10;99.90
22925;DHT22;11628;51.072;3.712;2022-11-23T07:41:48;7.10;99.90
22925;DHT22;11628;51.072;3.712;2022-11-23T07:44:14;7.00;99.90
22925;DHT22;11628;51.072;3.712;2022-11-23T07:46:40;7.00;99.90
22925;DHT22;11628;51.072;3.712;2022-11-23T07:49:05;7.10;99.90
22925;DHT22;11628;51.072;3.712;2022-11-23T07:51:31;7.00;99.90
22925;DHT22;11628;51.072;3.712;2022-11-23T07:53:58;7.10;99.90
22925;DHT22;11628;51.072;3.712;2022-11-23T07:56:23;7.10;99.90
22925;DHT22;11628;51.072;3.712;2022-11-23T07:58:49;7.10;99.90
22925;DHT22;11628;51.072;3.712;2022-11-23T08:01:15;7.10;99.90
22925;DHT22;11628;51.072;3.712;2022-11-23T08:03:43;7.20;99.90
22925;DHT22;11628;51.072;3.712;2022-11-23T08:06:10;7.20;99.90
22925;DHT22;11628;51.072;3.712;2022-11-23T08:08:36;7.20;99.90
22925;DHT22;11628;51.072;3.712;2022-11-23T08:11:04;7.20;99.90
22925;DHT22;11628;51.072;3.712;2022-11-23T08:13:30;7.30;99.90
22925;DHT22;11628;51.072;3.712;2022-11-23T08:15:59;7.30;99.90
22925;DHT22;11628;51.072;3.712;2022-11-23T08:18:26;7.40;99.90
22925;DHT22;11628;51.072;3.712;2022-11-23T08:20:52;7.50;99.90
22925;DHT22;11628;51.072;3.712;2022-11-23T08:23:18;7.50;99.90
22925;DHT22;11628;51.072;3.712;2022-11-23T08:25:44;7.50;99.90
22925;DHT22;11628;51.072;3.712;2022-11-23T08:28:11;7.60;99.90
22925;DHT22;11628;51.072;3.712;2022-11-23T08:30:37;7.70;99.90
22925;DHT22;11628;51.072;3.712;2022-11-23T08:33:07;7.60;99.90
22925;DHT22;11628;51.072;3.712;2022-11-23T08:35:34;7.70;99.90
22925;DHT22;11628;51.072;3.712;2022-11-23T08:38:01;7.70;99.90
22925;DHT22;11628;51.072;3.712;2022-11-23T08:40:26;7.80;99.90
22925;DHT22;11628;51.072;3.712;2022-11-23T08:42:53;7.80;99.90
22925;DHT22;11628;51.072;3.712;2022-11-23T08:45:19;7.80;99.90
22925;DHT22;11628;51.072;3.712;2022-11-23T08:47:44;7.80;99.90
22925;DHT22;11628;51.072;3.712;2022-11-23T08:50:10;7.80;99.90
22925;DHT22;11628;51.072;3.712;2022-11-23T08:52:36;7.80;99.90
22925;DHT22;11628;51.072;3.712;2022-11-23T08:55:02;7.80;99.90
22925;DHT22;11628;51.072;3.712;2022-11-23T08:57:28;7.90;99.90
22925;DHT22;11628;51.072;3.712;2022-11-23T08:59:54;8.00;99.90
22925;DHT22;11628;51.072;3.712;2022-11-23T09:02:19;8.00;99.90
22925;DHT22;11628;51.072;3.712;2022-11-23T09:04:45;8.00;99.90
22925;DHT22;11628;51.072;3.712;2022-11-23T09:07:11;8.10;99.90
22925;DHT22;11628;51.072;3.712;2022-11-23T09:09:37;8.10;99.90
22925;DHT22;11628;51.072;3.712;2022-11-23T09:12:03;8.20;99.90
22925;DHT22;11628;51.072;3.712;2022-11-23T09:14:29;8.30;99.90
22925;DHT22;11628;51.072;3.712;2022-11-23T09:16:54;8.40;99.90
22925;DHT22;11628;51.072;3.712;2022-11-23T09:19:20;8.60;99.90
22925;DHT22;11628;51.072;3.712;2022-11-23T09:21:46;8.60;99.90
22925;DHT22;11628;51.072;3.712;2022-11-23T09:24:12;8.70;99.90
22925;DHT22;11628;51.072;3.712;2022-11-23T09:26:38;8.70;99.90
22925;DHT22;11628;51.072;3.712;2022-11-23T09:29:06;8.60;99.90
22925;DHT22;11628;51.072;3.712;2022-11-23T09:31:32;8.80;99.90
22925;DHT22;11628;51.072;3.712;2022-11-23T09:33:58;8.90;99.90
22925;DHT22;11628;51.072;3.712;2022-11-23T09:36:24;9.00;99.90
22925;DHT22;11628;51.072;3.712;2022-11-23T09:38:50;9.00;99.90
22925;DHT22;11628;51.072;3.712;2022-11-23T09:49:51;9.10;99.90
22925;DHT22;11628;51.072;3.712;2022-11-23T09:52:23;9.10;99.90
22925;DHT22;11628;51.072;3.712;2022-11-23T09:54:52;9.10;99.90
22925;DHT22;11628;51.072;3.712;2022-11-23T09:57:24;9.10;99.90
22925;DHT22;11628;51.072;3.712;2022-11-23T10:00:05;9.20;99.90
22925;DHT22;11628;51.072;3.712;2022-11-23T10:02:35;9.10;99.90
22925;DHT22;11628;51.072;3.712;2022-11-23T10:05:04;9.10;99.90
22925;DHT22;11628;51.072;3.712;2022-11-23T10:15:38;8.90;99.90
22925;DHT22;11628;51.072;3.712;2022-11-23T10:23:26;9.20;99.90
22925;DHT22;11628;51.072;3.712;2022-11-23T10:25:56;9.30;99.90
22925;DHT22;11628;51.072;3.712;2022-11-23T10:28:22;9.60;99.90
22925;DHT22;11628;51.072;3.712;2022-11-23T10:31:16;9.70;99.90
22925;DHT22;11628;51.072;3.712;2022-11-23T10:36:17;9.50;99.90
22925;DHT22;11628;51.072;3.712;2022-11-23T10:38:43;9.60;99.90
22925;DHT22;11628;51.072;3.712;2022-11-23T10:41:12;9.70;99.90
22925;DHT22;11628;51.072;3.712;2022-11-23T10:43:59;9.70;99.90
22925;DHT22;11628;51.072;3.712;2022-11-23T10:46:36;9.90;99.90
22925;DHT22;11628;51.072;3.712;2022-11-23T10:49:35;9.80;99.90
22925;DHT22;11628;51.072;3.712;2022-11-23T10:54:34;9.70;99.90
22925;DHT22;11628;51.072;3.712;2022-11-23T10:57:02;9.70;99.90
22925;DHT22;11628;51.072;3.712;2022-11-23T10:59:31;9.70;99.90
22925;DHT22;11628;51.072;3.712;2022-11-23T11:02:10;9.80;99.90
22925;DHT22;11628;51.072;3.712;2022-11-23T11:04:38;9.90;99.90
22925;DHT22;11628;51.072;3.712;2022-11-23T11:07:26;9.80;99.90
22925;DHT22;11628;51.072;3.712;2022-11-23T11:10:02;9.90;99.90
22925;DHT22;11628;51.072;3.712;2022-11-23T11:12:33;9.90;99.90
22925;DHT22;11628;51.072;3.712;2022-11-23T11:17:37;9.70;99.90
22925;DHT22;11628;51.072;3.712;2022-11-23T11:22:54;9.70;99.90
22925;DHT22;11628;51.072;3.712;2022-11-23T11:25:34;9.70;99.90
22925;DHT22;11628;51.072;3.712;2022-11-23T11:28:02;9.60;99.90
22925;DHT22;11628;51.072;3.712;2022-11-23T11:30:42;9.60;99.90
22925;DHT22;11628;51.072;3.712;2022-11-23T11:33:28;9.60;99.90
22925;DHT22;11628;51.072;3.712;2022-11-23T11:35:59;9.60;99.90
22925;DHT22;11628;51.072;3.712;2022-11-23T11:38:34;9.40;99.90
22925;DHT22;11628;51.072;3.712;2022-11-23T11:41:12;9.20;99.90
22925;DHT22;11628;51.072;3.712;2022-11-23T11:46:23;8.80;99.90
22925;DHT22;11628;51.072;3.712;2022-11-23T11:56:46;8.60;99.90
22925;DHT22;11628;51.072;3.712;2022-11-23T11:59:44;8.60;99.90
22925;DHT22;11628;51.072;3.712;2022-11-23T12:05:16;8.60;99.90
22925;DHT22;11628;51.072;3.712;2022-11-23T12:13:06;8.50;99.90
22925;DHT22;11628;51.072;3.712;2022-11-23T12:15:38;8.50;99.90
22925;DHT22;11628;51.072;3.712;2022-11-23T12:32:58;8.40;99.90
22925;DHT22;11628;51.072;3.712;2022-11-23T12:35:30;8.40;99.90
22925;DHT22;11628;51.072;3.712;2022-11-23T12:38:19;8.40;99.90
22925;DHT22;11628;51.072;3.712;2022-11-23T12:52:21;8.50;99.90
22925;DHT22;11628;51.072;3.712;2022-11-23T12:57:30;8.60;99.90
22925;DHT22;11628;51.072;3.712;2022-11-23T13:00:06;8.60;99.90
22925;DHT22;11628;51.072;3.712;2022-11-23T13:14:18;8.60;99.90
22925;DHT22;11628;51.072;3.712;2022-11-23T13:21:59;8.50;99.90
22925;DHT22;11628;51.072;3.712;2022-11-23T13:24:33;8.50;99.90
22925;DHT22;11628;51.072;3.712;2022-11-23T13:35:19;8.50;99.90
22925;DHT22;11628;51.072;3.712;2022-11-23T13:40:35;8.40;99.90
22925;DHT22;11628;51.072;3.712;2022-11-23T13:48:46;8.40;99.90
22925;DHT22;11628;51.072;3.712;2022-11-23T13:51:25;8.40;99.90
22925;DHT22;11628;51.072;3.712;2022-11-23T13:53:56;8.40;99.90
22925;DHT22;11628;51.072;3.712;2022-11-23T13:56:33;8.30;99.90
22925;DHT22;11628;51.072;3.712;2022-11-23T13:59:30;8.40;99.90
22925;DHT22;11628;51.072;3.712;2022-11-23T14:02:41;8.40;99.90
22925;DHT22;11628;51.072;3.712;2022-11-23T14:04:48;8.40;99.90
22925;DHT22;11628;51.072;3.712;2022-11-23T14:07:24;8.40;99.90
22925;DHT22;11628;51.072;3.712;2022-11-23T14:12:32;8.40;99.90
22925;DHT22;11628;51.072;3.712;2022-11-23T14:15:11;8.40;99.90
22925;DHT22;11628;51.072;3.712;2022-11-23T14:20:56;8.40;99.90
22925;DHT22;11628;51.072;3.712;2022-11-23T14:31:34;8.50;99.90
22925;DHT22;11628;51.072;3.712;2022-11-23T14:37:08;8.60;99.90
22925;DHT22;11628;51.072;3.712;2022-11-23T14:42:24;8.70;99.90
22925;DHT22;11628;51.072;3.712;2022-11-23T14:44:51;8.80;99.90
22925;DHT22;11628;51.072;3.712;2022-11-23T14:47:25;8.90;99.90
22925;DHT22;11628;51.072;3.712;2022-11-23T14:49:51;9.00;99.90
22925;DHT22;11628;51.072;3.712;2022-11-23T14:52:30;9.10;99.90
22925;DHT22;11628;51.072;3.712;2022-11-23T14:55:00;9.10;99.90
22925;DHT22;11628;51.072;3.712;2022-11-23T14:57:36;9.00;99.90
22925;DHT22;11628;51.072;3.712;2022-11-23T15:00:04;9.00;99.90
22925;DHT22;11628;51.072;3.712;2022-11-23T15:02:35;9.00;99.90
22925;DHT22;11628;51.072;3.712;2022-11-23T15:07:54;9.00;99.90
22925;DHT22;11628;51.072;3.712;2022-11-23T15:10:29;8.90;99.90
22925;DHT22;11628;51.072;3.712;2022-11-23T15:12:58;8.80;99.90
22925;DHT22;11628;51.072;3.712;2022-11-23T15:15:26;8.90;99.90
22925;DHT22;11628;51.072;3.712;2022-11-23T15:17:54;8.80;99.90
22925;DHT22;11628;51.072;3.712;2022-11-23T15:20:22;8.80;99.90
22925;DHT22;11628;51.072;3.712;2022-11-23T15:22:49;8.80;99.90
22925;DHT22;11628;51.072;3.712;2022-11-23T15:25:15;8.80;99.90
22925;DHT22;11628;51.072;3.712;2022-11-23T15:27:45;8.70;99.90
22925;DHT22;11628;51.072;3.712;2022-11-23T15:30:28;8.70;99.90
22925;DHT22;11628;51.072;3.712;2022-11-23T15:35:30;8.70;99.90
22925;DHT22;11628;51.072;3.712;2022-11-23T15:37:57;8.70;99.90
22925;DHT22;11628;51.072;3.712;2022-11-23T15:40:28;8.60;99.90
22925;DHT22;11628;51.072;3.712;2022-11-23T15:42:54;8.60;99.90
22925;DHT22;11628;51.072;3.712;2022-11-23T15:48:25;8.60;99.90
22925;DHT22;11628;51.072;3.712;2022-11-23T15:51:03;8.60;99.90
22925;DHT22;11628;51.072;3.712;2022-11-23T15:53:30;8.60;99.90
22925;DHT22;11628;51.072;3.712;2022-11-23T15:56:04;8.60;99.90
22925;DHT22;11628;51.072;3.712;2022-11-23T15:58:30;8.50;99.90
22925;DHT22;11628;51.072;3.712;2022-11-23T16:01:11;8.50;99.90
22925;DHT22;11628;51.072;3.712;2022-11-23T16:03:48;8.50;99.90
22925;DHT22;11628;51.072;3.712;2022-11-23T16:06:27;8.50;99.90
22925;DHT22;11628;51.072;3.712;2022-11-23T16:08:53;8.50;99.90
22925;DHT22;11628;51.072;3.712;2022-11-23T16:14:13;8.50;99.90
22925;DHT22;11628;51.072;3.712;2022-11-23T16:16:39;8.50;99.90
22925;DHT22;11628;51.072;3.712;2022-11-23T16:19:28;8.40;99.90
22925;DHT22;11628;51.072;3.712;2022-11-23T16:21:58;8.40;99.90
22925;DHT22;11628;51.072;3.712;2022-11-23T16:24:25;8.40;99.90
22925;DHT22;11628;51.072;3.712;2022-11-23T16:26:52;8.40;99.90
22925;DHT22;11628;51.072;3.712;2022-11-23T16:29:39;8.40;99.90
22925;DHT22;11628;51.072;3.712;2022-11-23T16:32:18;8.50;99.90
22925;DHT22;11628;51.072;3.712;2022-11-23T16:34:45;8.60;99.90
22925;DHT22;11628;51.072;3.712;2022-11-23T16:37:10;8.40;99.90
22925;DHT22;11628;51.072;3.712;2022-11-23T16:39:36;8.40;99.90
22925;DHT22;11628;51.072;3.712;2022-11-23T16:42:01;8.40;99.90
22925;DHT22;11628;51.072;3.712;2022-11-23T16:44:28;8.40;99.90
22925;DHT22;11628;51.072;3.712;2022-11-23T16:47:11;8.40;99.90
22925;DHT22;11628;51.072;3.712;2022-11-23T16:49:42;8.40;99.90
22925;DHT22;11628;51.072;3.712;2022-11-23T16:52:07;8.40;99.90
22925;DHT22;11628;51.072;3.712;2022-11-23T16:54:36;8.40;99.90
22925;DHT22;11628;51.072;3.712;2022-11-23T16:57:01;8.40;99.90
22925;DHT22;11628;51.072;3.712;2022-11-23T16:59:29;8.40;99.90
22925;DHT22;11628;51.072;3.712;2022-11-23T17:01:56;8.40;99.90
22925;DHT22;11628;51.072;3.712;2022-11-23T17:04:22;8.40;99.90
22925;DHT22;11628;51.072;3.712;2022-11-23T17:06:48;8.40;99.90
22925;DHT22;11628;51.072;3.712;2022-11-23T17:09:14;8.40;99.90
22925;DHT22;11628;51.072;3.712;2022-11-23T17:11:42;8.40;99.90
22925;DHT22;11628;51.072;3.712;2022-11-23T17:14:13;8.40;99.90
22925;DHT22;11628;51.072;3.712;2022-11-23T17:16:39;8.40;99.90
22925;DHT22;11628;51.072;3.712;2022-11-23T17:19:13;8.40;99.90
22925;DHT22;11628;51.072;3.712;2022-11-23T17:21:40;8.40;99.90
22925;DHT22;11628;51.072;3.712;2022-11-23T17:24:05;8.40;99.90
22925;DHT22;11628;51.072;3.712;2022-11-23T17:26:39;8.40;99.90
22925;DHT22;11628;51.072;3.712;2022-11-23T17:29:12;8.40;99.90
22925;DHT22;11628;51.072;3.712;2022-11-23T17:31:40;8.50;99.90
22925;DHT22;11628;51.072;3.712;2022-11-23T17:34:11;8.50;99.90
22925;DHT22;11628;51.072;3.712;2022-11-23T17:36:37;8.60;99.90
22925;DHT22;11628;51.072;3.712;2022-11-23T17:39:03;8.60;99.90
22925;DHT22;11628;51.072;3.712;2022-11-23T17:41:29;8.70;99.90
22925;DHT22;11628;51.072;3.712;2022-11-23T17:43:55;8.70;99.90
22925;DHT22;11628;51.072;3.712;2022-11-23T17:46:24;8.70;99.90
22925;DHT22;11628;51.072;3.712;2022-11-23T17:48:55;8.80;99.90
22925;DHT22;11628;51.072;3.712;2022-11-23T17:51:22;8.80;99.90
22925;DHT22;11628;51.072;3.712;2022-11-23T17:53:47;8.80;99.90
22925;DHT22;11628;51.072;3.712;2022-11-23T17:56:19;8.80;99.90
22925;DHT22;11628;51.072;3.712;2022-11-23T17:58:45;8.80;99.90
22925;DHT22;11628;51.072;3.712;2022-11-23T18:01:15;8.70;99.90
22925;DHT22;11628;51.072;3.712;2022-11-23T18:03:42;8.60;99.90
22925;DHT22;11628;51.072;3.712;2022-11-23T18:06:20;8.60;99.90
22925;DHT22;11628;51.072;3.712;2022-11-23T18:08:47;8.60;99.90
22925;DHT22;11628;51.072;3.712;2022-11-23T18:11:13;8.60;99.90
22925;DHT22;11628;51.072;3.712;2022-11-23T18:13:40;8.60;99.90
22925;DHT22;11628;51.072;3.712;2022-11-23T18:16:07;8.60;99.90
22925;DHT22;11628;51.072;3.712;2022-11-23T18:18:33;8.60;99.90
22925;DHT22;11628;51.072;3.712;2022-11-23T18:20:59;8.60;99.90
22925;DHT22;11628;51.072;3.712;2022-11-23T18:23:26;8.60;99.90